ADDS TAF Board (Experimental) INFO Settings

IDs: Format: Expanded Condensed

KBOS - Boston/Logan Intl, MA, US

Issued at 1207 UTC 28 Mar 2015
Updated at: 1215 UTC 28 Mar 2015
Time1154Z 28/13Z 28/14Z 28/15Z 28/16Z 28/17Z 28/18Z 28/19Z 28/20Z 28/21Z 28/22Z 28/23Z 29/00Z 29/01Z
Type OBS PRVL PRVL PRVL PRVL PRVL PRVL PRVL PRVL PRVL PRVL PRVL PRVL PRVL
VIS 7 4 4 4 4 4 2 2 2 2 2 2 2 3
CIG 32 17 17 17 17 17 8 8 8 8 8 8 8 10
Cover OVC OVC OVC OVC OVC OVC OVC OVC OVC OVC OVC OVC OVC OVC
FltCat VFR MVFR MVFR MVFR MVFR MVFR IFR IFR IFR IFR IFR IFR IFR MVFR
WX -SN -SN -SN -SN -SN -SN -SHSN -SHSN -SHSN -SHSN BR -SHSN BR -SHSN BR -SHSN BR BR
WDir 30 30 30 30 30 30 10 10 10 10 10 10 10 360
WSpd 14 14 14 14 14 14 12 12 12 15 15 15 15 9
WGst -- -- -- -- -- -- 23 23 23 -- -- -- -- --
R04/22
XWnd -2 -2 -2 -2 -2 -2 2 2 2 3 3 3 3 3
XGst -- -- -- -- -- -- 4 4 4 -- -- -- -- --
HWnd 14 14 14 14 14 14 12 12 12 15 15 15 15 8
HGst -- -- -- -- -- -- 23 23 23 -- -- -- -- --
R09/27
XWnd 10 10 10 10 10 10 11 11 11 14 14 14 14 9
XGst -- -- -- -- -- -- 21 21 21 -- -- -- -- --
HWnd 10 10 10 10 10 10 5 5 5 6 6 6 6 2
HGst -- -- -- -- -- -- 9 9 9 -- -- -- -- --
R14/32
XWnd 14 14 14 14 14 14 11 11 11 14 14 14 14 7
XGst -- -- -- -- -- -- 21 21 21 -- -- -- -- --
HWnd -1 -1 -1 -1 -1 -1 -5 -5 -5 -6 -6 -6 -6 -5
HGst -- -- -- -- -- -- -10 -10 -10 -- -- -- -- --
R15/33
XWnd 14 14 14 14 14 14 10 10 10 12 12 12 12 6
XGst -- -- -- -- -- -- 19 19 19 -- -- -- -- --
HWnd -4 -4 -4 -4 -4 -4 -7 -7 -7 -9 -9 -9 -9 -6
HGst -- -- -- -- -- -- -13 -13 -13 -- -- -- -- --

NOTE: TEMPO conditions in [brackets]. Keep in mind TEMPO conditions might be better (lower impact) than prevailing conditions.

Raw TAF
KBOS 281207Z 2812/2918 03014KT 4SM -SN OVC017
  FM281800 01012G23KT 2SM -SHSN BKN008 OVC015
  FM282100 01015KT 2SM -SHSN BR OVC008
  FM290100 36009KT 3SM BR OVC010
  FM290600 33009KT P6SM OVC015
  FM290700 33009KT P6SM OVC030


Raw METAR
KBOS 281154Z 03014KT 7SM -SN FEW015 OVC032 02/M01 A2975 RMK AO2 RAE1057SNB1057 SLP073 P0000 60000 70002 T00171006 10033 20017 53009
KBOS 281101Z 03017KT 8SM -SN OVC026 02/M01 A2973 RMK AO2 RAE1057SNB1057 P0000
KBOS 281054Z 03013KT 10SM -RA OVC026 02/M01 A2973 RMK AO2 SLP067 RAB19 P0000 T00221006
KBOS 281021Z 02013KT 10SM -RA BKN026 OVC033 03/M01 A2973 RMK AO2 RAB19 P0000
KBOS 280954Z 02013KT 10SM SCT032 BKN045 OVC070 03/M01 A2971 RMK AO2 CIG 032 E SLP061 T00281006

METAR Board
Radar Display
Forecast Discussion

TAF Board Legend

Potential Impact
Threat None Slight Moderate High
Visibility (sm) ≥5.1 5.1>X≥3 3>X≥1 <1
Ceiling (100 ft) ≥30.1 30.1>X≥10 10>X≥5 <5
Wind Speed (kt) <10 10≤X<20 20≤X<30 ≥30
Wind Gust (kt) <15 15≤X<25 25≤X<35 ≥35
Weather No Wx Reported VCTS,-TS,-FZRA,SN TS,FZRA +TS,+FZRA,+SN